createdAt,value
2023-04-29T00:02:49.950Z,98828.09
2023-04-29T00:05:51.887Z,98813.22
2023-04-29T00:08:53.664Z,98830.13
2023-04-29T00:11:55.535Z,98830.88
2023-04-29T00:14:57.315Z,98832.19
2023-04-29T00:17:59.015Z,98842.50
2023-04-29T00:21:00.787Z,98832.13
2023-04-29T00:24:02.482Z,98840.09
2023-04-29T00:27:04.130Z,98844.78
2023-04-29T00:30:08.298Z,98849.81
2023-04-29T00:33:10.166Z,98841.41
2023-04-29T00:36:11.851Z,98832.94
2023-04-29T00:39:15.221Z,98842.59
2023-04-29T00:42:17.244Z,98831.50
2023-04-29T00:45:18.989Z,98840.81
2023-04-29T00:48:20.675Z,98826.19
2023-04-29T00:51:22.666Z,98838.78
2023-04-29T00:54:24.481Z,98842.63
2023-04-29T00:57:29.110Z,98834.47
2023-04-29T01:00:31.258Z,98849.09
2023-04-29T01:03:33.198Z,98829.94
2023-04-29T01:07:07.252Z,98848.50
2023-04-29T01:10:16.874Z,98842.22
2023-04-29T01:13:24.801Z,98847.16
2023-04-29T01:16:35.190Z,98844.25
2023-04-29T01:19:58.560Z,98844.41
2023-04-29T01:23:00.601Z,98848.25
2023-04-29T01:26:02.559Z,98846.31
2023-04-29T01:29:59.865Z,98854.75
2023-04-29T01:33:17.894Z,98850.91
2023-04-29T01:36:31.641Z,98854.59
2023-04-29T01:39:36.108Z,98847.59
2023-04-29T01:43:05.608Z,98859.25
2023-04-29T01:46:10.017Z,98845.50
2023-04-29T01:49:12.873Z,98845.66
2023-04-29T01:52:15.358Z,98850.16
2023-04-29T01:55:25.831Z,98846.13
2023-04-29T01:58:45.481Z,98852.00
2023-04-29T02:02:06.092Z,98855.31
2023-04-29T02:05:11.179Z,98849.00
2023-04-29T02:08:17.724Z,98849.69
2023-04-29T02:11:21.244Z,98851.72
2023-04-29T02:14:23.080Z,98852.84
2023-04-29T02:17:26.269Z,98850.59
2023-04-29T02:20:28.396Z,98848.38
2023-04-29T02:23:31.256Z,98856.53
2023-04-29T02:26:34.157Z,98856.94
2023-04-29T02:29:35.743Z,98862.38
2023-04-29T02:32:39.390Z,98867.03
2023-04-29T02:35:41.042Z,98872.53
2023-04-29T02:38:42.734Z,98876.50
2023-04-29T02:41:44.368Z,98876.50
2023-04-29T02:44:46.394Z,98888.13
2023-04-29T02:47:48.362Z,98886.66
2023-04-29T02:50:50.215Z,98882.34
2023-04-29T02:53:52.113Z,98874.84
2023-04-29T02:56:53.890Z,98884.84
2023-04-29T02:59:55.724Z,98892.38
2023-04-29T03:02:57.852Z,98890.25
2023-04-29T03:05:59.635Z,98894.03
2023-04-29T03:09:01.409Z,98897.44
2023-04-29T03:12:03.247Z,98900.88
2023-04-29T03:15:07.913Z,98891.59
2023-04-29T03:18:09.775Z,98890.44
2023-04-29T03:21:11.670Z,98905.41
2023-04-29T03:24:13.478Z,98903.84
2023-04-29T03:27:15.293Z,98894.38
2023-04-29T03:30:17.970Z,98897.22
2023-04-29T03:33:24.441Z,98898.09
2023-04-29T03:36:26.580Z,98885.03
2023-04-29T03:39:48.483Z,98873.44
2023-04-29T03:42:50.329Z,98902.09
2023-04-29T03:45:54.322Z,98905.50
2023-04-29T03:48:58.277Z,98909.97
2023-04-29T03:52:00.462Z,98903.09
2023-04-29T03:55:02.814Z,98916.22
2023-04-29T03:58:04.821Z,98916.59
2023-04-29T04:01:06.971Z,98923.25
2023-04-29T04:04:18.292Z,98928.94
2023-04-29T04:07:23.163Z,98933.81
2023-04-29T04:10:54.246Z,98936.19
2023-04-29T04:14:05.793Z,98940.94
2023-04-29T04:17:07.642Z,98936.69
2023-04-29T04:20:13.234Z,98937.94
2023-04-29T04:23:14.943Z,98941.47
2023-04-29T04:26:18.688Z,98945.69
2023-04-29T04:29:34.194Z,98953.13
2023-04-29T04:32:47.183Z,98955.19
2023-04-29T04:35:49.184Z,98953.34
2023-04-29T04:38:50.916Z,98957.53
2023-04-29T04:41:52.674Z,98966.22
2023-04-29T04:44:55.476Z,98970.59
2023-04-29T04:48:16.722Z,98981.63
2023-04-29T04:51:23.581Z,98975.50
2023-04-29T04:54:25.264Z,98978.69
2023-04-29T04:57:35.989Z,98987.69
2023-04-29T05:00:38.128Z,98991.16
2023-04-29T05:03:40.101Z,98980.00
2023-04-29T05:06:42.206Z,98988.63
2023-04-29T05:09:43.905Z,98996.06
2023-04-29T05:12:45.624Z,98994.38
2023-04-29T05:15:47.329Z,98976.84
2023-04-29T05:18:54.590Z,99000.00
2023-04-29T05:21:59.078Z,99010.44
2023-04-29T05:25:03.283Z,99014.44
2023-04-29T05:28:07.415Z,99022.06
2023-04-29T05:31:11.557Z,99022.97
2023-04-29T05:34:13.409Z,99019.16
2023-04-29T05:37:16.056Z,99024.03
2023-04-29T05:40:40.819Z,99029.00
2023-04-29T05:44:01.584Z,99033.28
2023-04-29T05:47:03.267Z,99048.25
2023-04-29T05:50:06.011Z,99042.38
2023-04-29T05:53:07.744Z,99042.84
2023-04-29T05:56:09.773Z,99050.16
2023-04-29T05:59:11.976Z,99061.63
2023-04-29T06:02:14.695Z,99064.81
2023-04-29T06:05:17.767Z,99069.22
2023-04-29T06:08:52.010Z,99065.13
2023-04-29T06:11:59.522Z,99066.97
2023-04-29T06:15:01.410Z,99058.59
2023-04-29T06:18:03.410Z,99080.09
2023-04-29T06:21:05.521Z,99077.84
2023-04-29T06:24:07.924Z,99081.13
2023-04-29T06:27:10.846Z,99072.94
2023-04-29T06:30:13.062Z,99066.44
2023-04-29T06:33:14.714Z,99082.63
2023-04-29T06:36:16.840Z,99081.63
2023-04-29T06:39:37.179Z,99088.69
2023-04-29T06:42:57.345Z,99090.19
2023-04-29T06:46:22.086Z,99098.09
2023-04-29T06:49:38.752Z,99080.91
2023-04-29T06:52:41.169Z,99100.03
2023-04-29T06:55:45.348Z,99102.28
2023-04-29T06:58:47.675Z,99098.00
2023-04-29T07:01:50.011Z,99100.13
2023-04-29T07:04:54.834Z,99103.84
2023-04-29T07:07:56.718Z,99092.31
2023-04-29T07:11:00.173Z,99097.31
2023-04-29T07:14:01.959Z,99099.44
2023-04-29T07:17:05.443Z,99110.72
2023-04-29T07:20:07.769Z,99098.88
2023-04-29T07:23:09.738Z,99108.34
2023-04-29T07:26:16.607Z,99108.13
2023-04-29T07:29:20.467Z,99117.72
2023-04-29T07:32:22.702Z,99109.84
2023-04-29T07:35:24.434Z,99115.75
2023-04-29T07:38:26.348Z,99110.19
2023-04-29T07:41:28.755Z,99116.78
2023-04-29T07:44:30.372Z,99126.09
2023-04-29T07:47:32.385Z,99119.28
2023-04-29T07:50:37.532Z,99130.16
2023-04-29T07:53:39.084Z,99125.50
2023-04-29T07:56:40.785Z,99127.13
2023-04-29T07:59:42.708Z,99133.69
2023-04-29T08:02:45.110Z,99130.78
2023-04-29T08:05:51.509Z,99132.75
2023-04-29T08:08:53.197Z,99148.03
2023-04-29T08:11:54.970Z,99146.47
2023-04-29T08:14:56.602Z,99129.09
2023-04-29T08:17:58.289Z,99138.66
2023-04-29T08:20:59.979Z,99153.16
2023-04-29T08:24:01.609Z,99150.81
2023-04-29T08:27:03.721Z,99153.25
2023-04-29T08:30:06.533Z,99159.38
2023-04-29T08:33:08.434Z,99147.44
2023-04-29T08:36:10.169Z,99158.16
2023-04-29T08:39:11.842Z,99155.03
2023-04-29T08:42:13.571Z,99160.56
2023-04-29T08:45:19.978Z,99154.50
2023-04-29T08:48:22.479Z,99158.06
2023-04-29T08:51:24.624Z,99156.66
2023-04-29T08:54:28.759Z,99141.63
2023-04-29T08:57:39.515Z,99142.81
2023-04-29T09:00:43.493Z,99142.13
2023-04-29T09:04:01.766Z,99147.47
2023-04-29T09:07:05.620Z,99154.31
2023-04-29T09:10:08.117Z,99158.09
2023-04-29T09:13:09.798Z,99152.69
2023-04-29T09:16:12.644Z,99156.81
2023-04-29T09:19:31.018Z,99151.06
2023-04-29T09:22:48.435Z,99153.88
2023-04-29T09:25:57.660Z,99161.22
2023-04-29T09:29:18.402Z,99150.06
2023-04-29T09:32:21.441Z,99159.03
2023-04-29T09:35:27.229Z,99157.19
2023-04-29T09:38:28.890Z,99163.47
2023-04-29T09:41:30.522Z,99157.59
2023-04-29T09:44:37.999Z,99160.75
2023-04-29T09:47:39.794Z,99154.38
2023-04-29T09:50:43.905Z,99156.66
2023-04-29T09:53:45.880Z,99158.13
2023-04-29T09:56:53.110Z,99161.53
2023-04-29T09:59:54.748Z,99153.69
2023-04-29T10:02:59.349Z,99149.50
2023-04-29T10:06:02.860Z,99160.03
2023-04-29T10:09:07.318Z,99153.28
2023-04-29T10:12:09.444Z,99145.31
2023-04-29T10:15:36.519Z,99146.66
2023-04-29T10:18:42.018Z,99152.03
2023-04-29T10:21:43.922Z,99137.50
2023-04-29T10:24:47.042Z,99148.66
2023-04-29T10:27:49.989Z,99146.31
2023-04-29T10:30:54.088Z,99138.56
2023-04-29T10:34:01.049Z,99136.19
2023-04-29T10:37:03.235Z,99133.88
2023-04-29T10:40:13.376Z,99132.63
2023-04-29T10:43:15.887Z,99125.59
2023-04-29T10:46:22.446Z,99136.56
2023-04-29T10:49:25.508Z,99136.84
2023-04-29T10:52:27.895Z,99141.13
2023-04-29T10:55:29.747Z,99139.94
2023-04-29T10:58:45.033Z,99128.13
2023-04-29T11:01:53.644Z,99133.28
2023-04-29T11:05:12.506Z,99126.59
2023-04-29T11:08:24.338Z,99132.03
2023-04-29T11:11:28.267Z,99115.94
2023-04-29T11:14:31.174Z,99132.00
2023-04-29T11:17:38.169Z,99133.78
2023-04-29T11:21:04.753Z,99128.69
2023-04-29T11:24:07.300Z,99136.56
2023-04-29T11:27:09.578Z,99127.31
2023-04-29T11:30:11.618Z,99131.38
2023-04-29T11:33:13.936Z,99139.88
2023-04-29T11:36:15.879Z,99145.38
2023-04-29T11:39:17.580Z,99135.03
2023-04-29T11:42:22.822Z,99144.06
2023-04-29T11:45:24.771Z,99152.25
2023-04-29T11:48:27.020Z,99149.13
2023-04-29T11:51:28.884Z,99148.13
2023-04-29T11:54:30.814Z,99149.00
2023-04-29T11:57:32.745Z,99144.31
2023-04-29T12:00:35.099Z,99148.22
2023-04-29T12:03:37.028Z,99145.28
2023-04-29T12:06:38.778Z,99146.59
2023-04-29T12:09:44.915Z,99147.31
2023-04-29T12:12:47.403Z,99150.22
2023-04-29T12:15:50.327Z,99143.44
2023-04-29T12:18:53.407Z,99153.84
2023-04-29T12:21:59.149Z,99153.09
2023-04-29T12:25:03.897Z,99146.31
2023-04-29T12:28:07.150Z,99151.75
2023-04-29T12:31:11.665Z,99138.63
2023-04-29T12:34:13.334Z,99127.00
2023-04-29T12:37:15.299Z,99137.59
2023-04-29T12:40:17.565Z,99148.19
2023-04-29T12:43:19.354Z,99147.78
2023-04-29T12:46:21.266Z,99148.88
2023-04-29T12:49:24.824Z,99154.66
2023-04-29T12:52:26.440Z,99147.66
2023-04-29T12:55:28.245Z,99148.53
2023-04-29T12:58:30.727Z,99152.59
2023-04-29T13:01:32.663Z,99152.25
2023-04-29T13:04:34.566Z,99156.13
2023-04-29T13:07:37.125Z,99151.88
2023-04-29T13:10:38.840Z,99151.00
2023-04-29T13:13:40.759Z,99150.88
2023-04-29T13:16:52.548Z,99148.72
2023-04-29T13:20:06.474Z,99113.72
2023-04-29T13:23:14.035Z,99110.66
2023-04-29T13:26:18.642Z,99106.06
2023-04-29T13:29:20.851Z,99144.94
2023-04-29T13:32:24.744Z,99151.53
2023-04-29T13:35:26.543Z,99137.50
2023-04-29T13:38:28.556Z,99153.25
2023-04-29T13:41:34.431Z,99156.31
2023-04-29T13:44:59.931Z,99148.25
2023-04-29T13:48:09.641Z,99163.00
2023-04-29T13:51:45.962Z,99159.75
2023-04-29T14:03:55.462Z,99157.31
2023-04-29T14:06:57.836Z,99161.31
2023-04-29T14:09:59.814Z,99160.94
2023-04-29T14:13:01.512Z,99160.06
2023-04-29T14:16:07.009Z,99163.78
2023-04-29T14:19:09.092Z,99160.66
2023-04-29T14:22:10.766Z,99175.34
2023-04-29T14:25:12.554Z,99177.31
2023-04-29T14:28:14.237Z,99172.59
2023-04-29T14:31:18.167Z,99169.34
2023-04-29T14:34:19.961Z,99175.91
2023-04-29T14:37:21.628Z,99178.19
2023-04-29T14:40:23.278Z,99169.69
2023-04-29T14:43:24.898Z,99176.63
2023-04-29T14:46:28.987Z,99185.25
2023-04-29T14:49:31.759Z,99179.06
2023-04-29T14:52:33.545Z,99179.88
2023-04-29T14:55:35.256Z,99182.13
2023-04-29T14:58:36.853Z,99180.75
2023-04-29T15:01:39.884Z,99158.31
2023-04-29T15:04:45.759Z,99179.84
2023-04-29T15:07:47.636Z,99183.41
2023-04-29T15:10:50.046Z,99182.97
2023-04-29T15:13:52.037Z,99181.66
2023-04-29T15:16:53.704Z,99181.13
2023-04-29T15:19:55.419Z,99183.19
2023-04-29T15:22:56.962Z,99187.31
2023-04-29T15:25:58.760Z,99141.34
2023-04-29T15:29:00.817Z,99184.78
2023-04-29T15:32:02.595Z,99192.81
2023-04-29T15:35:06.681Z,99186.19
2023-04-29T15:38:08.396Z,99188.19
2023-04-29T15:41:10.063Z,99189.84
2023-04-29T15:44:11.767Z,99186.16
2023-04-29T15:47:13.552Z,99188.31
2023-04-29T15:50:15.555Z,99191.47
2023-04-29T15:53:17.283Z,99183.66
2023-04-29T15:56:19.068Z,99186.91
2023-04-29T15:59:20.765Z,99181.28
2023-04-29T16:02:22.448Z,99178.94
2023-04-29T16:05:24.054Z,99192.03
2023-04-29T16:08:26.263Z,99192.44
2023-04-29T16:11:27.950Z,99187.78
2023-04-29T16:14:30.229Z,99190.88
2023-04-29T16:17:32.534Z,99190.81
2023-04-29T16:20:34.277Z,99200.50
2023-04-29T16:23:35.922Z,99191.94
2023-04-29T16:26:38.646Z,99197.53
2023-04-29T16:29:40.395Z,99195.69
2023-04-29T16:32:43.045Z,99202.50
2023-04-29T16:35:44.772Z,99209.22
2023-04-29T16:38:46.358Z,99208.44
2023-04-29T16:41:48.064Z,99207.44
2023-04-29T16:44:50.018Z,99205.50
2023-04-29T16:47:52.367Z,99213.88
2023-04-29T16:50:54.041Z,99212.56
2023-04-29T16:53:55.657Z,99212.66
2023-04-29T16:56:57.406Z,99216.72
2023-04-29T16:59:59.100Z,99223.31
2023-04-29T17:03:00.987Z,99229.38
2023-04-29T17:06:02.968Z,99225.41
2023-04-29T17:09:04.679Z,99222.25
2023-04-29T17:12:09.487Z,99219.44
2023-04-29T17:15:11.327Z,99231.72
2023-04-29T17:18:13.868Z,99221.88
2023-04-29T17:21:15.705Z,99229.72
2023-04-29T17:24:18.005Z,99230.81
2023-04-29T17:27:19.678Z,99229.88
2023-04-29T17:30:21.396Z,99237.66
2023-04-29T17:33:23.135Z,99239.50
2023-04-29T17:36:25.114Z,99238.81
2023-04-29T17:39:26.821Z,99226.44
2023-04-29T17:42:28.469Z,99226.03
2023-04-29T17:45:30.304Z,99233.78
2023-04-29T17:48:32.446Z,99236.97
2023-04-29T17:51:34.345Z,99237.09
2023-04-29T17:54:39.642Z,99235.19
2023-04-29T17:57:41.904Z,99243.81
2023-04-29T18:00:43.691Z,99242.13
2023-04-29T18:03:47.111Z,99237.38
2023-04-29T18:06:48.821Z,99245.19
2023-04-29T18:09:50.506Z,99225.63
2023-04-29T18:12:52.098Z,99241.72
2023-04-29T18:15:54.109Z,99249.25
2023-04-29T18:18:56.970Z,99253.22
2023-04-29T18:22:01.330Z,99244.59
2023-04-29T18:25:03.135Z,99246.44
2023-04-29T18:28:19.386Z,99241.00
2023-04-29T18:31:26.558Z,99239.75
2023-04-29T18:34:28.437Z,99246.00
2023-04-29T18:37:30.624Z,99240.22
2023-04-29T18:40:32.389Z,99248.34
2023-04-29T18:43:34.682Z,99250.97
2023-04-29T18:46:36.509Z,99246.66
2023-04-29T18:49:38.453Z,99240.31
2023-04-29T18:52:40.190Z,99231.50
2023-04-29T18:55:41.942Z,99254.28
2023-04-29T18:58:43.579Z,99252.59
2023-04-29T19:01:48.771Z,99259.94
2023-04-29T19:04:50.699Z,99264.53
2023-04-29T19:07:52.277Z,99266.88
2023-04-29T19:10:54.103Z,99272.75
2023-04-29T19:13:56.138Z,99268.69
2023-04-29T19:16:57.789Z,99270.16
2023-04-29T19:19:59.543Z,99261.66
2023-04-29T19:23:01.261Z,99271.38
2023-04-29T19:26:03.323Z,99271.16
2023-04-29T19:29:05.336Z,99252.16
2023-04-29T19:32:06.986Z,99271.97
2023-04-29T19:35:08.880Z,99273.22
2023-04-29T19:38:11.061Z,99276.72
2023-04-29T19:41:12.772Z,99285.63
2023-04-29T19:44:14.481Z,99283.13
2023-04-29T19:47:16.212Z,99284.06
2023-04-29T19:50:17.896Z,99280.88
2023-04-29T19:53:19.916Z,99278.06
2023-04-29T19:56:21.570Z,99281.53
2023-04-29T19:59:23.293Z,99278.72
2023-04-29T20:02:25.057Z,99277.47
2023-04-29T20:05:26.869Z,99287.38
2023-04-29T20:08:28.635Z,99288.38
2023-04-29T20:11:30.353Z,99287.78
2023-04-29T20:14:32.929Z,99283.34
2023-04-29T20:17:34.687Z,99277.75
2023-04-29T20:20:36.532Z,99281.78
2023-04-29T20:23:38.169Z,99289.91
2023-04-29T20:26:39.758Z,99291.94
2023-04-29T20:29:41.587Z,99285.94
2023-04-29T20:32:43.320Z,99287.78
2023-04-29T20:35:44.969Z,99298.75
2023-04-29T20:38:48.644Z,99291.16
2023-04-29T20:41:50.447Z,99285.28
2023-04-29T20:44:52.382Z,99306.75
2023-04-29T20:47:54.563Z,99302.94
2023-04-29T20:50:56.474Z,99303.59
2023-04-29T20:53:58.499Z,99306.47
2023-04-29T20:57:00.270Z,99311.25
2023-04-29T21:00:01.931Z,99296.78
2023-04-29T21:03:03.752Z,99290.13
2023-04-29T21:06:05.500Z,99303.59
2023-04-29T21:09:07.236Z,99310.31
2023-04-29T21:12:08.884Z,99308.28
2023-04-29T21:15:11.392Z,99304.19
2023-04-29T21:18:14.059Z,99291.78
2023-04-29T21:21:15.767Z,99289.38
2023-04-29T21:24:17.519Z,99305.91
2023-04-29T21:27:19.307Z,99308.28
2023-04-29T21:30:20.957Z,99310.75
2023-04-29T21:33:23.050Z,99302.84
2023-04-29T21:36:24.636Z,99312.56
2023-04-29T21:39:26.267Z,99303.84
2023-04-29T21:42:28.099Z,99307.03
2023-04-29T21:45:29.892Z,99303.84
2023-04-29T21:48:32.463Z,99306.00
2023-04-29T21:51:34.678Z,99306.38
2023-04-29T21:54:36.663Z,99303.53
2023-04-29T21:57:44.509Z,99307.69
2023-04-29T22:00:58.178Z,99312.78
2023-04-29T22:04:00.022Z,99312.31
2023-04-29T22:07:01.726Z,99308.19
2023-04-29T22:10:03.517Z,99317.28
2023-04-29T22:13:05.161Z,99309.47
2023-04-29T22:16:07.046Z,99309.81
2023-04-29T22:19:08.701Z,99321.78
2023-04-29T22:22:10.431Z,99304.72
2023-04-29T22:25:12.192Z,99309.69
2023-04-29T22:28:13.921Z,99319.94
2023-04-29T22:31:15.574Z,99321.19
2023-04-29T22:34:17.273Z,99321.19
2023-04-29T22:37:18.982Z,99332.34
2023-04-29T22:40:20.633Z,99324.69
2023-04-29T22:43:22.537Z,99313.72
2023-04-29T22:46:25.077Z,99329.78
2023-04-29T22:49:27.116Z,99332.84
2023-04-29T22:52:28.796Z,99333.41
2023-04-29T22:55:30.452Z,99325.53
2023-04-29T22:58:33.760Z,99335.69
2023-04-29T23:01:35.541Z,99332.88
2023-04-29T23:04:37.297Z,99332.06
2023-04-29T23:07:38.996Z,99334.13
2023-04-29T23:10:40.804Z,99338.88
2023-04-29T23:13:42.504Z,99336.19
2023-04-29T23:16:44.116Z,99341.72
2023-04-29T23:19:46.046Z,99337.59
2023-04-29T23:22:47.781Z,99331.22
2023-04-29T23:25:49.667Z,99345.81
2023-04-29T23:28:51.405Z,99328.84
2023-04-29T23:31:53.115Z,99340.75
2023-04-29T23:34:54.757Z,99333.59
2023-04-29T23:37:56.405Z,99341.25
2023-04-29T23:40:58.001Z,99325.19
2023-04-29T23:44:02.599Z,99329.34
2023-04-29T23:47:04.371Z,99333.78
2023-04-29T23:50:06.856Z,99328.22
2023-04-29T23:53:08.512Z,99323.03
2023-04-29T23:56:10.323Z,99330.16
2023-04-29T23:59:12.024Z,99332.19
